sensor_id;sensor_type;location;lat;lon;timestamp;pressure;altitude;pressure_sealevel;temperature;humidity
49367;BME280;35245;52.026;8.540;2024-03-08T00:00:06;50860.06;;;-145.42;100.00
49367;BME280;35245;52.026;8.540;2024-03-08T00:02:39;50885.81;;;-145.42;100.00
49367;BME280;35245;52.026;8.540;2024-03-08T00:05:07;50848.16;;;-145.42;100.00
49367;BME280;35245;52.026;8.540;2024-03-08T00:07:35;50883.84;;;-145.42;100.00
49367;BME280;35245;52.026;8.540;2024-03-08T00:10:03;50879.88;;;-145.42;100.00
49367;BME280;35245;52.026;8.540;2024-03-08T00:12:30;50862.03;;;-145.42;100.00
49367;BME280;35245;52.026;8.540;2024-03-08T00:14:58;50879.88;;;-145.42;100.00
49367;BME280;35245;52.026;8.540;2024-03-08T00:17:25;50883.84;;;-145.42;100.00
49367;BME280;35245;52.026;8.540;2024-03-08T00:19:54;50895.75;;;-145.42;100.00
49367;BME280;35245;52.026;8.540;2024-03-08T00:22:22;50897.72;;;-145.42;100.00
49367;BME280;35245;52.026;8.540;2024-03-08T00:24:49;50889.78;;;-145.42;100.00
49367;BME280;35245;52.026;8.540;2024-03-08T00:27:17;50903.66;;;-145.42;100.00
49367;BME280;35245;52.026;8.540;2024-03-08T00:29:46;50887.81;;;-145.42;100.00
49367;BME280;35245;52.026;8.540;2024-03-08T00:32:13;50905.66;;;-145.42;100.00
49367;BME280;35245;52.026;8.540;2024-03-08T00:34:41;50881.88;;;-145.42;100.00
49367;BME280;35245;52.026;8.540;2024-03-08T00:37:10;50901.69;;;-145.42;100.00
49367;BME280;35245;52.026;8.540;2024-03-08T00:39:37;50887.81;;;-145.42;100.00
49367;BME280;35245;52.026;8.540;2024-03-08T00:42:04;50879.88;;;-145.42;100.00
49367;BME280;35245;52.026;8.540;2024-03-08T00:44:31;50927.44;;;-145.42;100.00
49367;BME280;35245;52.026;8.540;2024-03-08T00:46:58;50879.88;;;-145.42;100.00
49367;BME280;35245;52.026;8.540;2024-03-08T00:49:25;50905.66;;;-145.42;100.00
49367;BME280;35245;52.026;8.540;2024-03-08T00:51:52;50860.06;;;-145.42;100.00
49367;BME280;35245;52.026;8.540;2024-03-08T00:54:21;50883.84;;;-145.42;100.00
49367;BME280;35245;52.026;8.540;2024-03-08T00:56:48;50871.94;;;-145.42;100.00
49367;BME280;35245;52.026;8.540;2024-03-08T00:59:16;50887.81;;;-145.42;100.00
49367;BME280;35245;52.026;8.540;2024-03-08T01:01:43;50869.97;;;-145.42;100.00
49367;BME280;35245;52.026;8.540;2024-03-08T01:04:11;50889.78;;;-145.42;100.00
49367;BME280;35245;52.026;8.540;2024-03-08T01:06:38;50871.94;;;-145.42;100.00
49367;BME280;35245;52.026;8.540;2024-03-08T01:09:05;50877.91;;;-145.42;100.00
49367;BME280;35245;52.026;8.540;2024-03-08T01:11:34;50909.63;;;-145.42;100.00
49367;BME280;35245;52.026;8.540;2024-03-08T01:14:01;50887.81;;;-145.42;100.00
49367;BME280;35245;52.026;8.540;2024-03-08T01:16:28;50899.69;;;-145.42;100.00
49367;BME280;35245;52.026;8.540;2024-03-08T01:18:55;50893.75;;;-145.42;100.00
49367;BME280;35245;52.026;8.540;2024-03-08T01:21:22;50893.75;;;-145.42;100.00
49367;BME280;35245;52.026;8.540;2024-03-08T01:23:49;50875.91;;;-145.42;100.00
49367;BME280;35245;52.026;8.540;2024-03-08T01:26:16;50854.13;;;-145.42;100.00
49367;BME280;35245;52.026;8.540;2024-03-08T01:28:45;50887.81;;;-145.42;100.00
49367;BME280;35245;52.026;8.540;2024-03-08T01:31:12;50881.88;;;-145.42;100.00
49367;BME280;35245;52.026;8.540;2024-03-08T01:33:39;50895.75;;;-145.42;100.00
49367;BME280;35245;52.026;8.540;2024-03-08T01:36:07;50899.69;;;-145.42;100.00
49367;BME280;35245;52.026;8.540;2024-03-08T01:38:34;50901.69;;;-145.42;100.00
49367;BME280;35245;52.026;8.540;2024-03-08T01:41:02;50887.81;;;-145.42;100.00
49367;BME280;35245;52.026;8.540;2024-03-08T01:43:30;50897.72;;;-145.42;100.00
49367;BME280;35245;52.026;8.540;2024-03-08T01:45:59;50929.44;;;-145.42;100.00
49367;BME280;35245;52.026;8.540;2024-03-08T01:48:27;50897.72;;;-145.42;100.00
49367;BME280;35245;52.026;8.540;2024-03-08T01:50:55;50889.78;;;-145.42;100.00
49367;BME280;35245;52.026;8.540;2024-03-08T01:53:24;50877.91;;;-145.42;100.00
49367;BME280;35245;52.026;8.540;2024-03-08T01:55:56;50891.78;;;-145.42;100.00
49367;BME280;35245;52.026;8.540;2024-03-08T01:58:25;50901.69;;;-145.42;100.00
49367;BME280;35245;52.026;8.540;2024-03-08T02:00:56;50891.78;;;-145.42;100.00
49367;BME280;35245;52.026;8.540;2024-03-08T02:03:24;50929.44;;;-145.42;100.00
49367;BME280;35245;52.026;8.540;2024-03-08T02:05:51;50875.91;;;-145.42;100.00
49367;BME280;35245;52.026;8.540;2024-03-08T02:08:21;50923.50;;;-145.42;100.00
49367;BME280;35245;52.026;8.540;2024-03-08T02:10:48;50931.41;;;-145.42;100.00
49367;BME280;35245;52.026;8.540;2024-03-08T02:13:16;50921.50;;;-145.42;100.00
49367;BME280;35245;52.026;8.540;2024-03-08T02:15:55;50899.69;;;-145.42;100.00
49367;BME280;35245;52.026;8.540;2024-03-08T02:18:24;50943.31;;;-145.42;100.00
49367;BME280;35245;52.026;8.540;2024-03-08T02:20:53;50919.53;;;-145.42;100.00
49367;BME280;35245;52.026;8.540;2024-03-08T02:23:21;50905.66;;;-145.42;100.00
49367;BME280;35245;52.026;8.540;2024-03-08T02:25:48;50913.56;;;-145.42;100.00
49367;BME280;35245;52.026;8.540;2024-03-08T02:28:16;50915.56;;;-145.42;100.00
49367;BME280;35245;52.026;8.540;2024-03-08T02:30:44;50909.63;;;-145.42;100.00
49367;BME280;35245;52.026;8.540;2024-03-08T02:33:14;50903.66;;;-145.42;100.00
49367;BME280;35245;52.026;8.540;2024-03-08T02:35:44;50901.69;;;-145.42;100.00
49367;BME280;35245;52.026;8.540;2024-03-08T02:38:13;50897.72;;;-145.42;100.00
49367;BME280;35245;52.026;8.540;2024-03-08T02:40:42;50913.56;;;-145.42;100.00
49367;BME280;35245;52.026;8.540;2024-03-08T02:43:09;50893.75;;;-145.42;100.00
49367;BME280;35245;52.026;8.540;2024-03-08T02:45:37;50905.66;;;-145.42;100.00
49367;BME280;35245;52.026;8.540;2024-03-08T02:48:05;50915.56;;;-145.42;100.00
49367;BME280;35245;52.026;8.540;2024-03-08T02:50:33;50927.44;;;-145.42;100.00
49367;BME280;35245;52.026;8.540;2024-03-08T02:53:02;50941.31;;;-145.42;100.00
49367;BME280;35245;52.026;8.540;2024-03-08T02:55:31;50951.25;;;-145.42;100.00
49367;BME280;35245;52.026;8.540;2024-03-08T02:57:59;50943.31;;;-145.42;100.00
49367;BME280;35245;52.026;8.540;2024-03-08T03:00:26;50947.28;;;-145.42;100.00
49367;BME280;35245;52.026;8.540;2024-03-08T03:02:56;50957.19;;;-145.42;100.00
49367;BME280;35245;52.026;8.540;2024-03-08T03:05:24;50973.03;;;-145.42;100.00
49367;BME280;35245;52.026;8.540;2024-03-08T03:07:51;50969.06;;;-145.42;100.00
49367;BME280;35245;52.026;8.540;2024-03-08T03:10:19;50959.16;;;-145.42;100.00
49367;BME280;35245;52.026;8.540;2024-03-08T03:12:49;50943.31;;;-145.42;100.00
49367;BME280;35245;52.026;8.540;2024-03-08T03:15:17;50941.31;;;-145.42;100.00
49367;BME280;35245;52.026;8.540;2024-03-08T03:17:46;50967.09;;;-145.42;100.00
49367;BME280;35245;52.026;8.540;2024-03-08T03:20:14;50941.31;;;-145.42;100.00
49367;BME280;35245;52.026;8.540;2024-03-08T03:22:48;50907.63;;;-145.42;100.00
49367;BME280;35245;52.026;8.540;2024-03-08T03:25:18;50885.81;;;-145.42;100.00
49367;BME280;35245;52.026;8.540;2024-03-08T03:27:52;50909.63;;;-145.42;100.00
49367;BME280;35245;52.026;8.540;2024-03-08T03:30:22;50895.75;;;-145.42;100.00
49367;BME280;35245;52.026;8.540;2024-03-08T03:32:49;50939.34;;;-145.42;100.00
49367;BME280;35245;52.026;8.540;2024-03-08T03:35:17;50899.69;;;-145.42;100.00
49367;BME280;35245;52.026;8.540;2024-03-08T03:37:46;50927.44;;;-145.42;100.00
49367;BME280;35245;52.026;8.540;2024-03-08T03:40:27;50931.41;;;-145.42;100.00
49367;BME280;35245;52.026;8.540;2024-03-08T03:42:56;50925.47;;;-145.42;100.00
49367;BME280;35245;52.026;8.540;2024-03-08T03:45:23;50887.81;;;-145.42;100.00
49367;BME280;35245;52.026;8.540;2024-03-08T03:47:50;50911.59;;;-145.42;100.00
49367;BME280;35245;52.026;8.540;2024-03-08T03:50:18;50925.47;;;-145.42;100.00
49367;BME280;35245;52.026;8.540;2024-03-08T03:52:46;50909.63;;;-145.42;100.00
49367;BME280;35245;52.026;8.540;2024-03-08T03:55:14;50949.25;;;-145.42;100.00
49367;BME280;35245;52.026;8.540;2024-03-08T03:57:41;50883.84;;;-145.42;100.00
49367;BME280;35245;52.026;8.540;2024-03-08T04:00:11;50917.53;;;-145.42;100.00
49367;BME280;35245;52.026;8.540;2024-03-08T04:02:39;50871.94;;;-145.42;100.00
49367;BME280;35245;52.026;8.540;2024-03-08T04:05:08;50869.97;;;-145.42;100.00
49367;BME280;35245;52.026;8.540;2024-03-08T04:07:36;50866.00;;;-145.42;100.00
49367;BME280;35245;52.026;8.540;2024-03-08T04:10:05;50854.13;;;-145.42;100.00
49367;BME280;35245;52.026;8.540;2024-03-08T04:12:33;50832.31;;;-145.42;100.00
49367;BME280;35245;52.026;8.540;2024-03-08T04:15:00;50879.88;;;-145.42;100.00
49367;BME280;35245;52.026;8.540;2024-03-08T04:17:29;50869.97;;;-145.42;100.00
49367;BME280;35245;52.026;8.540;2024-03-08T04:19:57;50877.91;;;-145.42;100.00
49367;BME280;35245;52.026;8.540;2024-03-08T04:22:24;50873.94;;;-145.42;100.00
49367;BME280;35245;52.026;8.540;2024-03-08T04:24:51;50866.00;;;-145.42;100.00
49367;BME280;35245;52.026;8.540;2024-03-08T04:27:18;50840.25;;;-145.42;100.00
49367;BME280;35245;52.026;8.540;2024-03-08T04:29:45;50873.94;;;-145.42;100.00
49367;BME280;35245;52.026;8.540;2024-03-08T04:32:12;50858.06;;;-145.42;100.00
49367;BME280;35245;52.026;8.540;2024-03-08T04:34:40;50895.75;;;-145.42;100.00
49367;BME280;35245;52.026;8.540;2024-03-08T04:37:08;50887.81;;;-145.42;100.00
49367;BME280;35245;52.026;8.540;2024-03-08T04:39:36;50873.94;;;-145.42;100.00
49367;BME280;35245;52.026;8.540;2024-03-08T04:42:05;50832.31;;;-145.42;100.00
49367;BME280;35245;52.026;8.540;2024-03-08T04:44:36;50846.19;;;-145.42;100.00
49367;BME280;35245;52.026;8.540;2024-03-08T04:47:04;50866.00;;;-145.42;100.00
49367;BME280;35245;52.026;8.540;2024-03-08T04:49:32;50862.03;;;-145.42;100.00
49367;BME280;35245;52.026;8.540;2024-03-08T04:52:02;50903.66;;;-145.42;100.00
49367;BME280;35245;52.026;8.540;2024-03-08T04:54:30;50858.06;;;-145.42;100.00
49367;BME280;35245;52.026;8.540;2024-03-08T04:56:57;50852.13;;;-145.42;100.00
49367;BME280;35245;52.026;8.540;2024-03-08T04:59:26;50848.16;;;-145.42;100.00
49367;BME280;35245;52.026;8.540;2024-03-08T05:01:53;50858.06;;;-145.42;100.00
49367;BME280;35245;52.026;8.540;2024-03-08T05:04:20;50864.03;;;-145.42;100.00
49367;BME280;35245;52.026;8.540;2024-03-08T05:06:48;50852.13;;;-145.42;100.00
49367;BME280;35245;52.026;8.540;2024-03-08T05:09:16;50871.94;;;-145.42;100.00
49367;BME280;35245;52.026;8.540;2024-03-08T05:11:46;50895.75;;;-145.42;100.00
49367;BME280;35245;52.026;8.540;2024-03-08T05:14:14;50862.03;;;-145.42;100.00
49367;BME280;35245;52.026;8.540;2024-03-08T05:16:42;50871.94;;;-145.42;100.00
49367;BME280;35245;52.026;8.540;2024-03-08T05:19:14;50873.94;;;-145.42;100.00
49367;BME280;35245;52.026;8.540;2024-03-08T05:21:42;50881.88;;;-145.42;100.00
49367;BME280;35245;52.026;8.540;2024-03-08T05:24:10;50862.03;;;-145.42;100.00
49367;BME280;35245;52.026;8.540;2024-03-08T05:26:39;50858.06;;;-145.42;100.00
49367;BME280;35245;52.026;8.540;2024-03-08T05:29:07;50871.94;;;-145.42;100.00
49367;BME280;35245;52.026;8.540;2024-03-08T05:31:45;50860.06;;;-145.42;100.00
49367;BME280;35245;52.026;8.540;2024-03-08T05:34:13;50858.06;;;-145.42;100.00
49367;BME280;35245;52.026;8.540;2024-03-08T05:36:40;50836.28;;;-145.42;100.00
49367;BME280;35245;52.026;8.540;2024-03-08T05:39:10;50856.09;;;-145.42;100.00
49367;BME280;35245;52.026;8.540;2024-03-08T05:41:39;50854.13;;;-145.42;100.00
49367;BME280;35245;52.026;8.540;2024-03-08T05:44:06;50830.34;;;-145.42;100.00
49367;BME280;35245;52.026;8.540;2024-03-08T05:46:33;50869.97;;;-145.42;100.00
49367;BME280;35245;52.026;8.540;2024-03-08T05:49:01;50838.25;;;-145.42;100.00
49367;BME280;35245;52.026;8.540;2024-03-08T05:51:31;50879.88;;;-145.42;100.00
49367;BME280;35245;52.026;8.540;2024-03-08T05:54:00;50858.06;;;-145.42;100.00
49367;BME280;35245;52.026;8.540;2024-03-08T05:56:28;50862.03;;;-145.42;100.00
49367;BME280;35245;52.026;8.540;2024-03-08T05:58:57;50875.91;;;-145.42;100.00
49367;BME280;35245;52.026;8.540;2024-03-08T06:01:25;50868.00;;;-145.42;100.00
49367;BME280;35245;52.026;8.540;2024-03-08T06:03:52;50881.88;;;-145.42;100.00
49367;BME280;35245;52.026;8.540;2024-03-08T06:06:21;50899.69;;;-145.42;100.00
49367;BME280;35245;52.026;8.540;2024-03-08T06:08:49;50887.81;;;-145.42;100.00
49367;BME280;35245;52.026;8.540;2024-03-08T06:11:16;50887.81;;;-145.42;100.00
49367;BME280;35245;52.026;8.540;2024-03-08T06:13:44;50915.56;;;-145.42;100.00
49367;BME280;35245;52.026;8.540;2024-03-08T06:16:12;50891.78;;;-145.42;100.00
49367;BME280;35245;52.026;8.540;2024-03-08T06:18:40;50885.81;;;-145.42;100.00
49367;BME280;35245;52.026;8.540;2024-03-08T06:21:08;50891.78;;;-145.42;100.00
49367;BME280;35245;52.026;8.540;2024-03-08T06:23:37;50907.63;;;-145.42;100.00
49367;BME280;35245;52.026;8.540;2024-03-08T06:26:05;50909.63;;;-145.42;100.00
49367;BME280;35245;52.026;8.540;2024-03-08T06:28:32;50901.69;;;-145.42;100.00
49367;BME280;35245;52.026;8.540;2024-03-08T06:31:00;50909.63;;;-145.42;100.00
49367;BME280;35245;52.026;8.540;2024-03-08T06:33:29;50877.91;;;-145.42;100.00
49367;BME280;35245;52.026;8.540;2024-03-08T06:35:58;50891.78;;;-145.42;100.00
49367;BME280;35245;52.026;8.540;2024-03-08T06:38:26;50891.78;;;-145.42;100.00
49367;BME280;35245;52.026;8.540;2024-03-08T06:40:53;50850.16;;;-145.42;100.00
49367;BME280;35245;52.026;8.540;2024-03-08T06:43:21;50854.13;;;-145.42;100.00
49367;BME280;35245;52.026;8.540;2024-03-08T06:45:50;50885.81;;;-145.42;100.00
49367;BME280;35245;52.026;8.540;2024-03-08T06:48:18;50899.69;;;-145.42;100.00
49367;BME280;35245;52.026;8.540;2024-03-08T06:50:47;50891.78;;;-145.42;100.00
49367;BME280;35245;52.026;8.540;2024-03-08T06:53:15;50854.13;;;-145.42;100.00
49367;BME280;35245;52.026;8.540;2024-03-08T06:55:44;50887.81;;;-145.42;100.00
49367;BME280;35245;52.026;8.540;2024-03-08T06:58:12;50864.03;;;-145.42;100.00
49367;BME280;35245;52.026;8.540;2024-03-08T07:00:39;50856.09;;;-145.42;100.00
49367;BME280;35245;52.026;8.540;2024-03-08T07:03:08;50877.91;;;-145.42;100.00
49367;BME280;35245;52.026;8.540;2024-03-08T07:05:38;50846.19;;;-145.42;100.00
49367;BME280;35245;52.026;8.540;2024-03-08T07:08:07;50836.28;;;-145.42;100.00
49367;BME280;35245;52.026;8.540;2024-03-08T07:10:34;50822.41;;;-145.42;100.00
49367;BME280;35245;52.026;8.540;2024-03-08T07:13:03;50873.94;;;-145.42;100.00
49367;BME280;35245;52.026;8.540;2024-03-08T07:15:30;50854.13;;;-145.42;100.00
49367;BME280;35245;52.026;8.540;2024-03-08T07:17:58;50873.94;;;-145.42;100.00
49367;BME280;35245;52.026;8.540;2024-03-08T07:20:25;50868.00;;;-145.42;100.00
49367;BME280;35245;52.026;8.540;2024-03-08T07:22:54;50848.16;;;-145.42;100.00
49367;BME280;35245;52.026;8.540;2024-03-08T07:25:23;50856.09;;;-145.42;100.00
49367;BME280;35245;52.026;8.540;2024-03-08T07:27:55;50846.19;;;-145.42;100.00
49367;BME280;35245;52.026;8.540;2024-03-08T07:30:24;50826.38;;;-145.42;100.00
49367;BME280;35245;52.026;8.540;2024-03-08T07:33:18;50850.16;;;-145.42;100.00
49367;BME280;35245;52.026;8.540;2024-03-08T07:35:45;50840.25;;;-145.42;100.00
49367;BME280;35245;52.026;8.540;2024-03-08T07:38:12;50826.38;;;-145.42;100.00
49367;BME280;35245;52.026;8.540;2024-03-08T07:40:42;50838.25;;;-145.42;100.00
49367;BME280;35245;52.026;8.540;2024-03-08T07:43:11;50844.22;;;-145.42;100.00
49367;BME280;35245;52.026;8.540;2024-03-08T07:45:38;50840.25;;;-145.42;100.00
49367;BME280;35245;52.026;8.540;2024-03-08T07:48:06;50828.34;;;-145.42;100.00
49367;BME280;35245;52.026;8.540;2024-03-08T07:50:36;50832.31;;;-145.42;100.00
49367;BME280;35245;52.026;8.540;2024-03-08T07:53:03;50832.31;;;-145.42;100.00
49367;BME280;35245;52.026;8.540;2024-03-08T07:55:32;50820.41;;;-145.42;100.00
49367;BME280;35245;52.026;8.540;2024-03-08T07:58:01;50820.41;;;-145.42;100.00
49367;BME280;35245;52.026;8.540;2024-03-08T08:00:28;50844.22;;;-145.42;100.00
49367;BME280;35245;52.026;8.540;2024-03-08T08:02:57;50814.47;;;-145.42;100.00
49367;BME280;35245;52.026;8.540;2024-03-08T08:05:24;50820.41;;;-145.42;100.00
49367;BME280;35245;52.026;8.540;2024-03-08T08:07:52;50828.34;;;-145.42;100.00
49367;BME280;35245;52.026;8.540;2024-03-08T08:10:19;50810.50;;;-145.42;100.00
49367;BME280;35245;52.026;8.540;2024-03-08T08:12:48;50836.28;;;-145.42;100.00
49367;BME280;35245;52.026;8.540;2024-03-08T08:15:17;50806.53;;;-145.42;100.00
49367;BME280;35245;52.026;8.540;2024-03-08T08:17:44;50800.59;;;-145.42;100.00
49367;BME280;35245;52.026;8.540;2024-03-08T08:20:12;50800.59;;;-145.42;100.00
49367;BME280;35245;52.026;8.540;2024-03-08T08:22:40;50790.69;;;-145.42;100.00
49367;BME280;35245;52.026;8.540;2024-03-08T08:25:08;50822.41;;;-145.42;100.00
49367;BME280;35245;52.026;8.540;2024-03-08T08:27:37;50804.56;;;-145.42;100.00
49367;BME280;35245;52.026;8.540;2024-03-08T08:30:06;50820.41;;;-145.42;100.00
49367;BME280;35245;52.026;8.540;2024-03-08T08:32:35;50806.53;;;-145.42;100.00
49367;BME280;35245;52.026;8.540;2024-03-08T08:35:03;50792.66;;;-145.42;100.00
49367;BME280;35245;52.026;8.540;2024-03-08T08:37:31;50753.03;;;-145.42;100.00
49367;BME280;35245;52.026;8.540;2024-03-08T08:39:57;50796.63;;;-145.42;100.00
49367;BME280;35245;52.026;8.540;2024-03-08T08:42:31;50816.47;;;-145.42;100.00
49367;BME280;35245;52.026;8.540;2024-03-08T08:44:58;50814.47;;;-145.42;100.00
49367;BME280;35245;52.026;8.540;2024-03-08T08:47:25;50796.63;;;-145.42;100.00
49367;BME280;35245;52.026;8.540;2024-03-08T08:49:53;50816.47;;;-145.42;100.00
49367;BME280;35245;52.026;8.540;2024-03-08T08:52:21;50800.59;;;-145.42;100.00
49367;BME280;35245;52.026;8.540;2024-03-08T08:54:49;50802.56;;;-145.42;100.00
49367;BME280;35245;52.026;8.540;2024-03-08T08:57:16;50798.63;;;-145.42;100.00
49367;BME280;35245;52.026;8.540;2024-03-08T08:59:43;50782.75;;;-145.42;100.00
49367;BME280;35245;52.026;8.540;2024-03-08T09:02:11;50828.34;;;-145.42;100.00
49367;BME280;35245;52.026;8.540;2024-03-08T09:04:38;50804.56;;;-145.42;100.00
49367;BME280;35245;52.026;8.540;2024-03-08T09:07:07;50778.78;;;-145.42;100.00
49367;BME280;35245;52.026;8.540;2024-03-08T09:09:34;50790.69;;;-145.42;100.00
49367;BME280;35245;52.026;8.540;2024-03-08T09:12:02;50796.63;;;-145.42;100.00
49367;BME280;35245;52.026;8.540;2024-03-08T09:14:29;50824.38;;;-145.42;100.00
49367;BME280;35245;52.026;8.540;2024-03-08T09:16:56;50774.84;;;-145.42;100.00
49367;BME280;35245;52.026;8.540;2024-03-08T09:19:23;50814.47;;;-145.42;100.00
49367;BME280;35245;52.026;8.540;2024-03-08T09:21:51;50812.50;;;-145.42;100.00
49367;BME280;35245;52.026;8.540;2024-03-08T09:24:20;50782.75;;;-145.42;100.00
49367;BME280;35245;52.026;8.540;2024-03-08T09:26:47;50796.63;;;-145.42;100.00
49367;BME280;35245;52.026;8.540;2024-03-08T09:29:14;50802.56;;;-145.42;100.00
49367;BME280;35245;52.026;8.540;2024-03-08T09:31:41;50802.56;;;-145.42;100.00
49367;BME280;35245;52.026;8.540;2024-03-08T09:34:09;50798.63;;;-145.42;100.00
49367;BME280;35245;52.026;8.540;2024-03-08T09:36:36;50780.78;;;-145.42;100.00
49367;BME280;35245;52.026;8.540;2024-03-08T09:39:03;50788.72;;;-145.42;100.00
49367;BME280;35245;52.026;8.540;2024-03-08T09:41:34;50782.75;;;-145.42;100.00
49367;BME280;35245;52.026;8.540;2024-03-08T09:44:01;50802.56;;;-145.42;100.00
49367;BME280;35245;52.026;8.540;2024-03-08T09:46:30;50802.56;;;-145.42;100.00
49367;BME280;35245;52.026;8.540;2024-03-08T09:48:57;50786.72;;;-145.42;100.00
49367;BME280;35245;52.026;8.540;2024-03-08T09:51:28;50772.84;;;-145.42;100.00
49367;BME280;35245;52.026;8.540;2024-03-08T09:53:57;50802.56;;;-145.42;100.00
49367;BME280;35245;52.026;8.540;2024-03-08T09:56:25;50794.66;;;-145.42;100.00
49367;BME280;35245;52.026;8.540;2024-03-08T09:58:55;50780.78;;;-145.42;100.00
49367;BME280;35245;52.026;8.540;2024-03-08T10:01:44;50772.84;;;-145.42;100.00
49367;BME280;35245;52.026;8.540;2024-03-08T10:04:12;50794.66;;;-145.42;100.00
49367;BME280;35245;52.026;8.540;2024-03-08T10:06:40;50796.63;;;-145.42;100.00
49367;BME280;35245;52.026;8.540;2024-03-08T10:09:07;50753.03;;;-145.42;100.00
49367;BME280;35245;52.026;8.540;2024-03-08T10:11:36;50790.69;;;-145.42;100.00
49367;BME280;35245;52.026;8.540;2024-03-08T10:14:05;50766.91;;;-145.42;100.00
49367;BME280;35245;52.026;8.540;2024-03-08T10:16:33;50794.66;;;-145.42;100.00
49367;BME280;35245;52.026;8.540;2024-03-08T10:19:01;50764.91;;;-145.42;100.00
49367;BME280;35245;52.026;8.540;2024-03-08T10:21:29;50786.72;;;-145.42;100.00
49367;BME280;35245;52.026;8.540;2024-03-08T10:23:56;50768.88;;;-145.42;100.00
49367;BME280;35245;52.026;8.540;2024-03-08T10:26:25;50764.91;;;-145.42;100.00
49367;BME280;35245;52.026;8.540;2024-03-08T10:28:52;50768.88;;;-145.42;100.00
49367;BME280;35245;52.026;8.540;2024-03-08T10:31:21;50770.88;;;-145.42;100.00
49367;BME280;35245;52.026;8.540;2024-03-08T10:33:48;50814.47;;;-145.42;100.00
49367;BME280;35245;52.026;8.540;2024-03-08T10:36:16;50798.63;;;-145.42;100.00
49367;BME280;35245;52.026;8.540;2024-03-08T10:38:44;50792.66;;;-145.42;100.00
49367;BME280;35245;52.026;8.540;2024-03-08T10:41:13;50774.84;;;-145.42;100.00
49367;BME280;35245;52.026;8.540;2024-03-08T10:43:58;50782.75;;;-145.42;100.00
49367;BME280;35245;52.026;8.540;2024-03-08T10:46:46;50792.66;;;-145.42;100.00
49367;BME280;35245;52.026;8.540;2024-03-08T10:49:17;50800.59;;;-145.42;100.00
49367;BME280;35245;52.026;8.540;2024-03-08T10:51:45;50784.75;;;-145.42;100.00
49367;BME280;35245;52.026;8.540;2024-03-08T10:54:14;50758.97;;;-145.42;100.00
49367;BME280;35245;52.026;8.540;2024-03-08T10:56:43;50786.72;;;-145.42;100.00
49367;BME280;35245;52.026;8.540;2024-03-08T10:59:10;50786.72;;;-145.42;100.00
49367;BME280;35245;52.026;8.540;2024-03-08T11:01:41;50782.75;;;-145.42;100.00
49367;BME280;35245;52.026;8.540;2024-03-08T11:04:08;50800.59;;;-145.42;100.00
49367;BME280;35245;52.026;8.540;2024-03-08T11:06:42;50784.75;;;-145.42;99.93
49367;BME280;35245;52.026;8.540;2024-03-08T11:09:28;50758.97;;;-145.42;99.90
49367;BME280;35245;52.026;8.540;2024-03-08T11:12:20;50780.78;;;-145.42;99.35
49367;BME280;35245;52.026;8.540;2024-03-08T11:14:49;50774.84;;;-145.42;100.00
49367;BME280;35245;52.026;8.540;2024-03-08T11:17:21;50778.78;;;-145.42;99.83
49367;BME280;35245;52.026;8.540;2024-03-08T11:19:48;50786.72;;;-145.42;99.89
49367;BME280;35245;52.026;8.540;2024-03-08T11:22:22;50774.84;;;-145.42;100.00
49367;BME280;35245;52.026;8.540;2024-03-08T11:24:50;50764.91;;;-145.42;100.00
49367;BME280;35245;52.026;8.540;2024-03-08T11:27:17;50784.75;;;-145.42;98.72
49367;BME280;35245;52.026;8.540;2024-03-08T11:30:00;50774.84;;;-145.42;98.04
49367;BME280;35245;52.026;8.540;2024-03-08T11:32:36;50766.91;;;-145.42;97.99
49367;BME280;35245;52.026;8.540;2024-03-08T11:35:06;50764.91;;;-145.42;98.12
49367;BME280;35245;52.026;8.540;2024-03-08T11:37:34;50776.81;;;-145.42;98.75
49367;BME280;35245;52.026;8.540;2024-03-08T11:40:11;50766.91;;;-145.42;98.24
49367;BME280;35245;52.026;8.540;2024-03-08T11:42:43;50796.63;;;-145.42;99.72
49367;BME280;35245;52.026;8.540;2024-03-08T11:45:12;50778.78;;;-145.42;97.52
49367;BME280;35245;52.026;8.540;2024-03-08T11:47:43;50794.66;;;-145.42;96.65
49367;BME280;35245;52.026;8.540;2024-03-08T11:50:12;50788.72;;;-145.42;94.34
49367;BME280;35245;52.026;8.540;2024-03-08T11:52:39;50780.78;;;-145.42;87.71
49367;BME280;35245;52.026;8.540;2024-03-08T11:55:08;50772.84;;;-145.42;77.05
49367;BME280;35245;52.026;8.540;2024-03-08T11:57:36;50762.94;;;-145.42;64.15
49367;BME280;35245;52.026;8.540;2024-03-08T12:00:05;50788.72;;;-145.42;59.03
49367;BME280;35245;52.026;8.540;2024-03-08T12:02:33;50796.63;;;-145.42;49.67
49367;BME280;35245;52.026;8.540;2024-03-08T12:05:06;50804.56;;;-145.42;45.56
49367;BME280;35245;52.026;8.540;2024-03-08T12:07:35;50844.22;;;-145.42;42.09
49367;BME280;35245;52.026;8.540;2024-03-08T12:10:16;50826.38;;;-145.42;37.68
49367;BME280;35245;52.026;8.540;2024-03-08T12:12:44;50832.31;;;-145.42;38.01
49367;BME280;35245;52.026;8.540;2024-03-08T12:15:12;50820.41;;;-145.42;37.74
49367;BME280;35245;52.026;8.540;2024-03-08T12:17:41;50869.97;;;-145.42;36.00
49367;BME280;35245;52.026;8.540;2024-03-08T12:20:15;50836.28;;;-145.42;35.12
49367;BME280;35245;52.026;8.540;2024-03-08T12:22:43;50877.91;;;-145.42;33.90
49367;BME280;35245;52.026;8.540;2024-03-08T12:25:11;50866.00;;;-145.42;32.18
49367;BME280;35245;52.026;8.540;2024-03-08T12:27:39;50832.31;;;-145.42;32.40
49367;BME280;35245;52.026;8.540;2024-03-08T12:30:21;50862.03;;;-145.42;31.93
49367;BME280;35245;52.026;8.540;2024-03-08T12:32:55;50856.09;;;-145.42;32.75
49367;BME280;35245;52.026;8.540;2024-03-08T12:35:26;50838.25;;;-145.42;31.93
49367;BME280;35245;52.026;8.540;2024-03-08T12:37:56;50838.25;;;-145.42;32.68